Time;durP1;ratioP1;P1;durP2;ratioP2;P2;SDS_P1;SDS_P2;PMS_P1;PMS_P2;Temp;Humidity;BMP_temperature;BMP_pressure;BME280_temperature;BME280_humidity;BME280_pressure;Samples;Min_cycle;Max_cycle;Signal;HPM_P1;HPM_P2
2022/06/07 00:00:14;;;;;;;2.50;2.30;;;19.80;81.00;;;;;;5057275;28;20206;-68
2022/06/07 00:02:40;;;;;;;6.60;2.60;;;19.90;80.80;;;;;;5065248;28;20189;-67
2022/06/07 00:05:06;;;;;;;4.40;2.20;;;19.90;81.20;;;;;;5082781;28;20192;-68
2022/06/07 00:07:33;;;;;;;5.40;2.43;;;19.80;81.50;;;;;;5054718;28;20191;-68
2022/06/07 00:09:58;;;;;;;3.80;2.33;;;19.80;81.50;;;;;;5064142;28;20190;-68
2022/06/07 00:12:25;;;;;;;4.90;2.77;;;19.70;81.60;;;;;;5056439;28;20211;-68
2022/06/07 00:14:51;;;;;;;7.57;2.87;;;19.70;81.70;;;;;;5045367;28;20187;-68
2022/06/07 00:17:17;;;;;;;3.23;2.37;;;19.70;81.80;;;;;;5045658;28;20186;-68
2022/06/07 00:19:43;;;;;;;6.70;2.70;;;19.60;81.50;;;;;;5053112;28;20198;-68
2022/06/07 00:22:09;;;;;;;4.70;2.73;;;19.60;81.60;;;;;;5055805;28;20189;-71
2022/06/07 00:24:36;;;;;;;5.83;2.57;;;19.50;81.70;;;;;;5056597;28;20190;-70
2022/06/07 00:27:03;;;;;;;6.53;3.00;;;19.50;81.80;;;;;;5056530;28;20178;-69
2022/06/07 00:29:29;;;;;;;2.83;2.30;;;19.40;81.90;;;;;;5074400;28;20185;-69
2022/06/07 00:31:55;;;;;;;5.57;2.87;;;19.40;82.00;;;;;;5072882;28;20186;-68
2022/06/07 00:34:23;;;;;;;4.40;2.90;;;19.30;81.90;;;;;;5056390;28;20182;-70
2022/06/07 00:36:48;;;;;;;6.37;2.83;;;19.30;82.10;;;;;;5062159;28;20188;-68
2022/06/07 00:39:14;;;;;;;3.17;2.50;;;19.20;82.20;;;;;;5063401;28;20197;-68
2022/06/07 00:41:40;;;;;;;3.77;2.60;;;19.20;82.30;;;;;;5052032;28;20185;-69
2022/06/07 00:44:21;;;;;;;2.67;2.47;;;19.20;82.60;;;;;;5071282;28;20200;-69
2022/06/07 00:47:02;;;;;;;2.47;2.27;;;19.10;82.80;;;;;;5064915;28;20181;-69
2022/06/07 00:49:34;;;;;;;3.03;2.50;;;19.00;82.80;;;;;;5062192;28;20695;-69
2022/06/07 00:52:00;;;;;;;4.07;2.60;;;19.10;82.90;;;;;;5069524;28;20618;-68
2022/06/07 00:54:28;;;;;;;3.83;2.73;;;19.10;82.80;;;;;;5050015;28;20195;-69
2022/06/07 00:56:55;;;;;;;3.90;2.60;;;19.00;82.90;;;;;;5055040;28;20260;-69
2022/06/07 00:59:22;;;;;;;3.73;2.50;;;19.00;83.00;;;;;;5056337;28;20210;-69
2022/06/07 01:01:50;;;;;;;4.00;2.60;;;19.00;83.30;;;;;;5058137;28;20193;-69
2022/06/07 01:04:16;;;;;;;2.97;2.60;;;19.00;83.00;;;;;;5060553;28;20179;-67
2022/06/07 01:12:10;;;;;;;3.00;2.70;;;19.00;82.60;;;;;;5072453;28;20272;-69
2022/06/07 01:14:37;;;;;;;4.70;2.73;;;19.10;82.50;;;;;;5072019;28;20186;-69
2022/06/07 01:17:03;;;;;;;4.20;3.20;;;19.00;82.90;;;;;;5069488;28;20204;-70
2022/06/07 01:19:29;;;;;;;3.03;2.83;;;19.10;82.80;;;;;;5059446;28;20950;-69
2022/06/07 01:21:54;;;;;;;3.50;2.80;;;19.00;82.70;;;;;;5051918;28;20222;-69
2022/06/07 01:24:20;;;;;;;2.80;2.50;;;19.00;82.30;;;;;;5069000;28;20228;-70
2022/06/07 01:26:46;;;;;;;3.80;2.43;;;19.00;82.20;;;;;;5072783;28;20187;-68
2022/06/07 01:29:14;;;;;;;3.63;2.53;;;19.00;82.30;;;;;;5052732;28;20186;-68
2022/06/07 01:31:40;;;;;;;7.77;3.17;;;19.00;82.40;;;;;;5075564;28;20178;-68
2022/06/07 01:34:06;;;;;;;3.83;2.90;;;18.90;82.90;;;;;;5061061;28;20186;-68
2022/06/07 01:36:32;;;;;;;4.33;2.50;;;18.80;83.20;;;;;;5062674;28;20231;-68
2022/06/07 01:41:55;;;;;;;5.40;2.60;;;18.80;83.10;;;;;;5076652;28;20261;-67
2022/06/07 01:44:26;;;;;;;3.20;2.70;;;18.80;83.50;;;;;;5068740;28;20181;-68
2022/06/07 01:46:52;;;;;;;4.07;2.70;;;18.80;83.60;;;;;;5071649;28;20186;-68
2022/06/07 01:49:18;;;;;;;2.97;2.67;;;18.80;83.20;;;;;;5054098;28;20234;-68
2022/06/07 01:51:44;;;;;;;7.93;2.93;;;18.80;83.20;;;;;;5040906;28;20190;-68
2022/06/07 01:54:12;;;;;;;2.40;2.20;;;18.80;83.30;;;;;;5065640;28;20201;-68
2022/06/07 01:56:38;;;;;;;2.77;2.57;;;18.80;83.40;;;;;;5046057;28;20191;-68
2022/06/07 01:59:04;;;;;;;2.93;2.40;;;18.80;83.70;;;;;;5059659;28;20209;-68
2022/06/07 02:01:30;;;;;;;4.00;3.10;;;18.80;83.50;;;;;;5055329;28;20245;-68
2022/06/07 02:03:56;;;;;;;2.50;2.20;;;18.80;83.40;;;;;;5073986;28;20187;-69
2022/06/07 02:06:22;;;;;;;4.73;2.83;;;18.70;83.50;;;;;;5087841;28;20179;-69
2022/06/07 02:08:48;;;;;;;4.77;2.30;;;18.70;83.60;;;;;;5069394;28;20236;-68
2022/06/07 02:11:19;;;;;;;4.27;2.60;;;18.70;83.80;;;;;;5050204;28;20194;-68
2022/06/07 02:13:46;;;;;;;2.80;2.60;;;18.70;84.00;;;;;;5064827;28;20225;-67
2022/06/07 02:16:12;;;;;;;4.23;2.83;;;18.70;84.00;;;;;;5068389;28;20254;-69
2022/06/07 02:18:39;;;;;;;4.13;2.43;;;18.70;84.20;;;;;;5073788;28;20206;-69
2022/06/07 02:21:06;;;;;;;5.57;2.43;;;18.70;84.30;;;;;;5075306;28;20193;-69
2022/06/07 02:23:34;;;;;;;4.87;3.00;;;18.60;84.30;;;;;;5059370;28;20178;-69
2022/06/07 02:26:03;;;;;;;4.10;2.60;;;18.70;84.10;;;;;;5056477;28;20212;-69
2022/06/07 02:28:34;;;;;;;3.73;2.70;;;18.60;84.00;;;;;;5101206;28;20183;-68
2022/06/07 02:31:00;;;;;;;3.40;2.70;;;18.70;83.90;;;;;;5065686;28;20190;-68
2022/06/07 02:33:28;;;;;;;4.53;2.93;;;18.70;84.10;;;;;;5072690;28;20186;-68
2022/06/07 02:35:54;;;;;;;3.33;2.90;;;18.70;84.30;;;;;;5074789;28;20246;-68
2022/06/07 02:38:20;;;;;;;3.93;2.97;;;18.60;84.40;;;;;;5080164;28;20304;-68
2022/06/07 02:40:48;;;;;;;4.10;2.67;;;18.60;84.40;;;;;;5055665;28;20182;-68
2022/06/07 02:43:14;;;;;;;4.53;2.70;;;18.60;84.30;;;;;;5067310;28;20186;-68
2022/06/07 02:45:39;;;;;;;5.43;2.77;;;18.60;84.10;;;;;;5053764;28;20342;-68
2022/06/07 02:48:07;;;;;;;3.43;2.93;;;18.60;84.30;;;;;;5051173;28;20302;-67
2022/06/07 02:50:33;;;;;;;4.37;2.70;;;18.50;84.30;;;;;;5049397;28;20194;-68
2022/06/07 02:52:59;;;;;;;6.53;3.00;;;18.50;84.30;;;;;;5065767;28;20198;-68
2022/06/07 02:55:25;;;;;;;4.07;2.90;;;18.50;84.50;;;;;;5087763;28;20276;-69
2022/06/07 02:57:51;;;;;;;3.20;2.47;;;18.40;84.70;;;;;;5069470;28;20194;-69
2022/06/07 03:00:17;;;;;;;6.07;3.20;;;18.40;84.60;;;;;;5072281;28;20289;-69
2022/06/07 03:02:43;;;;;;;5.67;3.13;;;18.40;84.80;;;;;;5049188;28;20285;-67
2022/06/07 03:05:12;;;;;;;2.87;2.67;;;18.30;84.80;;;;;;5063363;28;20198;-68
2022/06/07 03:07:39;;;;;;;3.23;2.80;;;18.30;84.80;;;;;;5060182;28;20209;-68
2022/06/07 03:10:06;;;;;;;3.57;2.80;;;18.30;84.80;;;;;;5067152;28;20190;-69
2022/06/07 03:12:32;;;;;;;4.07;2.90;;;18.30;84.90;;;;;;5061519;28;20197;-69
2022/06/07 03:14:58;;;;;;;3.00;2.60;;;18.20;84.90;;;;;;5064752;28;20197;-68
2022/06/07 03:17:24;;;;;;;3.13;2.60;;;18.30;84.80;;;;;;5039351;28;20238;-69
2022/06/07 03:19:50;;;;;;;9.93;3.10;;;18.30;84.70;;;;;;5058510;28;20282;-69
2022/06/07 03:22:17;;;;;;;4.47;2.63;;;18.30;84.60;;;;;;5062867;28;20199;-69
2022/06/07 03:24:43;;;;;;;4.53;2.67;;;18.20;84.70;;;;;;5063802;28;20201;-68
2022/06/07 03:27:09;;;;;;;3.73;2.30;;;18.20;84.80;;;;;;5043387;28;20190;-68
2022/06/07 03:29:35;;;;;;;3.87;2.63;;;18.20;84.80;;;;;;5089819;28;20195;-68
2022/06/07 03:32:01;;;;;;;4.40;3.17;;;18.20;84.90;;;;;;5045478;28;20202;-67
2022/06/07 03:34:27;;;;;;;6.63;3.17;;;18.20;84.90;;;;;;5054751;28;20217;-69
2022/06/07 03:36:53;;;;;;;6.47;3.27;;;18.10;84.90;;;;;;5072155;28;20206;-69
2022/06/07 03:39:18;;;;;;;3.60;3.30;;;18.00;85.10;;;;;;5055621;28;20202;-69
2022/06/07 03:41:45;;;;;;;6.00;3.10;;;18.00;85.30;;;;;;5049400;28;20206;-69
2022/06/07 03:44:10;;;;;;;4.50;3.20;;;17.90;85.50;;;;;;5049661;28;20186;-69
2022/06/07 03:46:36;;;;;;;3.37;3.07;;;17.90;85.30;;;;;;5040162;28;20217;-69
2022/06/07 03:49:03;;;;;;;6.87;3.47;;;18.00;85.10;;;;;;5068358;28;20237;-69
2022/06/07 03:51:30;;;;;;;8.03;2.90;;;18.00;85.00;;;;;;5062780;28;20182;-67
2022/06/07 03:53:57;;;;;;;4.43;3.17;;;17.90;85.30;;;;;;5062674;28;20263;-69
2022/06/07 03:56:23;;;;;;;6.00;3.40;;;17.90;85.30;;;;;;5051254;28;20189;-69
2022/06/07 03:58:50;;;;;;;5.23;3.10;;;17.90;85.20;;;;;;5055010;28;20210;-68
2022/06/07 04:01:18;;;;;;;5.10;3.33;;;17.90;85.20;;;;;;5047936;28;20270;-68
2022/06/07 04:03:46;;;;;;;5.17;2.93;;;17.80;85.30;;;;;;5060389;28;20187;-68
2022/06/07 04:06:33;;;;;;;4.37;3.07;;;17.80;85.40;;;;;;5066395;28;20269;-69
2022/06/07 04:08:58;;;;;;;5.17;3.53;;;17.80;85.40;;;;;;5065790;28;20235;-68
2022/06/07 04:11:26;;;;;;;5.47;3.00;;;17.90;85.40;;;;;;5053909;28;20194;-68
2022/06/07 04:13:53;;;;;;;4.50;2.93;;;17.80;85.50;;;;;;5071466;28;20280;-69
2022/06/07 04:16:22;;;;;;;5.90;3.03;;;17.80;85.60;;;;;;5062857;28;20183;-68
2022/06/07 04:18:48;;;;;;;4.27;3.30;;;17.80;85.60;;;;;;5067599;28;20206;-69
2022/06/07 04:21:15;;;;;;;4.73;3.50;;;17.80;85.60;;;;;;5052031;28;20186;-70
2022/06/07 04:23:42;;;;;;;9.13;3.47;;;17.80;85.60;;;;;;5068270;28;20181;-70
2022/06/07 04:26:14;;;;;;;4.60;3.33;;;17.80;85.70;;;;;;5036924;28;20223;-67
2022/06/07 04:28:41;;;;;;;3.93;3.00;;;17.80;85.70;;;;;;5060404;28;20194;-69
2022/06/07 04:31:17;;;;;;;3.70;3.37;;;17.80;85.70;;;;;;5048531;28;20194;-70
2022/06/07 04:33:44;;;;;;;4.80;3.50;;;17.80;85.80;;;;;;5056835;28;20218;-70
2022/06/07 04:36:18;;;;;;;6.97;3.67;;;17.80;86.00;;;;;;5060483;28;20197;-70
2022/06/07 04:38:45;;;;;;;3.53;3.23;;;17.80;86.10;;;;;;5061344;28;20282;-67
2022/06/07 04:41:13;;;;;;;4.83;3.50;;;17.90;86.20;;;;;;5063465;28;20187;-66
2022/06/07 04:43:39;;;;;;;4.80;3.20;;;17.80;86.20;;;;;;5061199;28;20187;-67
2022/06/07 04:46:14;;;;;;;4.03;3.30;;;17.90;86.20;;;;;;5058790;28;20216;-67
2022/06/07 04:48:39;;;;;;;4.70;3.93;;;17.90;86.20;;;;;;5053058;28;20233;-67
2022/06/07 04:51:09;;;;;;;3.40;3.10;;;18.00;86.20;;;;;;5058566;28;20187;-67
2022/06/07 04:53:35;;;;;;;3.67;3.03;;;18.00;86.20;;;;;;5056220;28;20198;-67
2022/06/07 04:56:11;;;;;;;6.53;3.50;;;18.00;86.20;;;;;;5055874;28;20193;-67
2022/06/07 04:58:37;;;;;;;6.70;3.47;;;18.00;86.10;;;;;;5052838;28;20484;-67
2022/06/07 05:01:24;;;;;;;5.47;4.23;;;18.00;86.20;;;;;;5049389;28;20201;-67
2022/06/07 05:03:51;;;;;;;6.30;3.37;;;18.10;86.20;;;;;;5070319;28;20182;-67
2022/06/07 05:06:25;;;;;;;5.37;3.77;;;18.10;86.40;;;;;;5054204;28;20178;-67
2022/06/07 05:08:53;;;;;;;4.10;3.70;;;18.10;86.40;;;;;;5073665;28;20182;-67
2022/06/07 05:11:19;;;;;;;4.27;3.70;;;18.20;86.40;;;;;;5060555;28;20190;-67
2022/06/07 05:13:45;;;;;;;3.90;2.93;;;18.20;86.40;;;;;;5075753;28;20240;-67
2022/06/07 05:16:10;;;;;;;3.97;3.40;;;18.20;86.30;;;;;;5046178;28;20224;-66
2022/06/07 05:18:36;;;;;;;5.67;3.53;;;18.30;86.20;;;;;;5070789;28;20213;-66
2022/06/07 05:21:07;;;;;;;5.67;3.30;;;18.30;86.20;;;;;;5078430;28;20200;-65
2022/06/07 05:23:33;;;;;;;5.33;3.67;;;18.30;86.10;;;;;;5070526;28;20178;-65
2022/06/07 05:25:59;;;;;;;4.80;4.30;;;18.40;86.20;;;;;;5053329;28;20193;-67
2022/06/07 05:28:24;;;;;;;3.67;3.37;;;18.40;86.00;;;;;;5058360;28;20214;-66
2022/06/07 05:30:50;;;;;;;6.70;3.83;;;18.50;86.10;;;;;;5053007;28;20198;-65
2022/06/07 05:33:16;;;;;;;3.93;3.53;;;18.50;85.90;;;;;;5051233;28;20190;-65
2022/06/07 05:35:42;;;;;;;5.67;3.43;;;18.60;85.90;;;;;;5072756;28;20179;-65
2022/06/07 05:38:10;;;;;;;4.90;3.53;;;18.60;86.00;;;;;;5050005;28;20216;-66
2022/06/07 05:40:36;;;;;;;5.23;3.43;;;18.70;86.00;;;;;;5066862;28;20209;-65
2022/06/07 05:43:02;;;;;;;7.23;3.83;;;18.70;86.00;;;;;;5056141;28;20182;-65
2022/06/07 05:45:27;;;;;;;4.83;3.40;;;18.70;85.90;;;;;;5060310;28;20182;-65
2022/06/07 05:47:53;;;;;;;5.73;3.20;;;18.70;85.90;;;;;;5076051;28;20233;-64
2022/06/07 05:50:19;;;;;;;4.03;3.57;;;18.80;85.90;;;;;;5055918;28;20285;-65
2022/06/07 05:52:44;;;;;;;3.80;3.23;;;18.80;85.70;;;;;;5055049;28;20212;-65
2022/06/07 05:55:10;;;;;;;5.03;3.20;;;18.80;85.60;;;;;;5059387;28;20281;-63
2022/06/07 05:57:35;;;;;;;4.70;3.00;;;18.90;85.50;;;;;;5062960;28;20182;-64
2022/06/07 06:00:04;;;;;;;4.67;3.20;;;18.90;85.10;;;;;;5065351;28;20210;-65
2022/06/07 06:02:29;;;;;;;4.93;3.03;;;19.00;85.30;;;;;;5064880;28;20181;-63
2022/06/07 06:04:55;;;;;;;4.47;3.63;;;19.00;85.10;;;;;;5044980;28;20190;-65
2022/06/07 06:07:21;;;;;;;15.97;6.60;;;19.00;85.00;;;;;;5071731;28;20273;-66
2022/06/07 06:12:31;;;;;;;11.13;6.27;;;19.00;84.80;;;;;;5076047;28;20185;-66
2022/06/07 06:14:57;;;;;;;9.57;4.60;;;19.10;85.00;;;;;;5056284;28;20190;-66
2022/06/07 06:17:23;;;;;;;5.57;3.50;;;19.10;84.80;;;;;;5056921;28;20190;-66
2022/06/07 06:19:49;;;;;;;131.40;32.00;;;19.10;84.40;;;;;;5075216;28;20194;-66
2022/06/07 06:22:14;;;;;;;108.27;30.33;;;19.20;84.00;;;;;;5054867;28;20187;-66
2022/06/07 06:24:40;;;;;;;42.80;15.57;;;19.30;83.60;;;;;;5079636;28;20178;-66
2022/06/07 06:27:06;;;;;;;33.57;12.30;;;19.30;83.20;;;;;;5045417;28;20201;-66
2022/06/07 06:29:32;;;;;;;60.97;19.60;;;19.30;83.00;;;;;;5067364;28;20190;-66
2022/06/07 06:31:57;;;;;;;52.07;16.23;;;19.40;82.80;;;;;;5073255;28;20300;-66
2022/06/07 06:34:29;;;;;;;16.43;6.90;;;19.40;82.70;;;;;;5062332;28;20193;-66
2022/06/07 06:36:56;;;;;;;7.23;4.20;;;19.50;81.90;;;;;;5063067;28;20202;-66
2022/06/07 06:39:23;;;;;;;7.10;3.67;;;19.60;81.70;;;;;;5055207;28;20253;-66
2022/06/07 06:41:48;;;;;;;4.20;3.00;;;19.70;81.50;;;;;;5056990;28;20238;-66
2022/06/07 06:44:15;;;;;;;4.10;2.87;;;19.80;81.30;;;;;;5071071;28;20191;-66
2022/06/07 06:46:45;;;;;;;3.40;3.00;;;19.80;80.80;;;;;;5063546;28;20220;-66
2022/06/07 06:49:13;;;;;;;5.40;3.43;;;20.00;80.80;;;;;;5068062;28;20229;-66
2022/06/07 06:51:41;;;;;;;4.40;3.10;;;20.10;79.70;;;;;;5075399;28;20182;-66
2022/06/07 06:54:07;;;;;;;4.20;3.40;;;20.20;80.50;;;;;;5062877;28;20189;-66
2022/06/07 06:56:33;;;;;;;4.30;3.17;;;20.20;79.80;;;;;;5062337;28;20183;-66
2022/06/07 06:58:59;;;;;;;3.17;2.87;;;20.30;80.40;;;;;;5055268;28;20217;-66
2022/06/07 07:01:31;;;;;;;5.17;3.53;;;20.20;80.40;;;;;;5064643;28;20176;-66
2022/06/07 07:04:00;;;;;;;4.00;3.10;;;20.30;81.70;;;;;;5100276;28;20197;-66
2022/06/07 07:06:26;;;;;;;4.20;3.20;;;20.30;83.20;;;;;;5045492;28;20182;-66
2022/06/07 07:08:52;;;;;;;3.70;3.23;;;20.20;83.70;;;;;;5099373;28;20182;-66
2022/06/07 07:11:25;;;;;;;4.93;2.90;;;20.20;83.40;;;;;;5052948;28;20234;-66
2022/06/07 07:13:53;;;;;;;7.53;4.20;;;20.20;83.40;;;;;;5068222;28;20254;-66
2022/06/07 07:16:23;;;;;;;4.43;3.20;;;20.20;83.60;;;;;;5064298;28;20211;-66
2022/06/07 07:18:49;;;;;;;4.03;3.30;;;20.20;84.10;;;;;;5065930;28;20289;-66
2022/06/07 07:21:35;;;;;;;8.93;4.50;;;20.20;84.30;;;;;;5050924;28;20200;-66
2022/06/07 07:24:06;;;;;;;58.13;19.40;;;20.20;84.10;;;;;;5068118;28;20178;-66
2022/06/07 07:26:33;;;;;;;17.80;7.90;;;20.20;84.50;;;;;;5088118;28;20261;-66
2022/06/07 07:28:59;;;;;;;6.23;4.00;;;20.20;83.20;;;;;;5059642;28;20210;-64
2022/06/07 07:31:31;;;;;;;4.73;3.40;;;20.20;81.40;;;;;;5055430;28;20213;-64
2022/06/07 07:33:57;;;;;;;4.90;3.10;;;20.20;80.90;;;;;;5060348;28;20240;-64
2022/06/07 07:36:23;;;;;;;3.53;3.23;;;20.20;81.40;;;;;;5082745;28;20255;-63
2022/06/07 07:38:49;;;;;;;4.73;2.83;;;20.30;81.70;;;;;;5060913;28;20229;-65
2022/06/07 07:41:18;;;;;;;3.80;2.80;;;20.30;82.00;;;;;;5046218;28;20189;-65
2022/06/07 07:43:44;;;;;;;3.43;2.33;;;20.30;81.50;;;;;;5067921;28;20269;-65
2022/06/07 07:46:11;;;;;;;3.60;2.90;;;20.40;80.70;;;;;;5070483;28;20211;-65
2022/06/07 07:48:36;;;;;;;8.43;3.10;;;20.40;79.30;;;;;;5066222;28;20237;-65
2022/06/07 07:51:08;;;;;;;4.23;3.10;;;20.50;78.70;;;;;;5044632;28;20182;-66
2022/06/07 07:53:34;;;;;;;2.80;2.53;;;20.60;78.30;;;;;;5052421;28;20190;-62
2022/06/07 07:56:00;;;;;;;3.57;2.83;;;20.70;78.20;;;;;;5054046;28;20274;-65
2022/06/07 07:58:25;;;;;;;2.83;2.53;;;20.70;78.10;;;;;;5056540;28;20264;-65
2022/06/07 08:00:51;;;;;;;2.97;2.47;;;20.80;77.80;;;;;;5052942;28;20183;-65
2022/06/07 08:03:19;;;;;;;3.33;2.80;;;20.80;72.30;;;;;;5051711;28;20269;-65
2022/06/07 08:05:45;;;;;;;4.20;2.60;;;20.90;73.90;;;;;;5055636;28;20178;-64
2022/06/07 08:08:11;;;;;;;2.77;2.20;;;21.00;76.10;;;;;;5060933;28;20209;-64
2022/06/07 08:10:39;;;;;;;2.67;2.37;;;21.00;72.60;;;;;;5069879;28;20173;-64
2022/06/07 08:13:05;;;;;;;4.20;1.97;;;21.10;73.50;;;;;;5057622;28;20186;-64
2022/06/07 08:15:33;;;;;;;2.43;2.23;;;21.20;71.40;;;;;;5043200;28;20177;-63
2022/06/07 08:18:02;;;;;;;2.23;2.03;;;21.30;72.80;;;;;;5060569;28;20186;-64
2022/06/07 08:20:30;;;;;;;2.57;2.37;;;21.40;72.70;;;;;;5098793;28;20210;-64
2022/06/07 08:22:56;;;;;;;3.97;2.30;;;21.60;72.30;;;;;;5051542;28;20220;-63
2022/06/07 08:25:22;;;;;;;2.23;1.90;;;21.80;65.40;;;;;;5051545;28;20210;-63
2022/06/07 08:27:47;;;;;;;3.37;2.57;;;21.90;67.00;;;;;;5036861;28;20183;-63
2022/06/07 08:30:14;;;;;;;3.50;2.03;;;22.00;68.80;;;;;;5067108;28;20215;-63
2022/06/07 08:32:40;;;;;;;2.23;1.90;;;22.20;64.80;;;;;;5086952;28;20269;-63
2022/06/07 08:37:51;;;;;;;1.87;1.77;;;22.30;65.40;;;;;;5061275;28;20188;-63
2022/06/07 08:40:43;;;;;;;2.13;1.90;;;22.50;67.30;;;;;;5052170;28;20206;-62
2022/06/07 08:43:17;;;;;;;2.37;1.83;;;22.50;66.00;;;;;;5059036;28;20182;-63
2022/06/07 08:45:46;;;;;;;3.70;2.17;;;22.60;64.10;;;;;;5069393;28;20181;-62
2022/06/07 08:48:13;;;;;;;2.20;2.10;;;22.70;69.10;;;;;;5065507;28;20229;-62
2022/06/07 08:50:44;;;;;;;2.67;2.17;;;22.70;67.10;;;;;;5071028;28;20206;-62
2022/06/07 08:53:17;;;;;;;2.47;2.03;;;22.70;69.60;;;;;;5062285;28;20205;-62
2022/06/07 08:55:52;;;;;;;2.93;2.20;;;22.70;69.00;;;;;;5060325;28;20178;-62
2022/06/07 08:58:33;;;;;;;2.50;1.90;;;22.70;70.10;;;;;;5053869;28;20186;-62
2022/06/07 09:01:09;;;;;;;2.93;1.90;;;22.70;69.00;;;;;;5059438;28;20188;-62
2022/06/07 09:03:57;;;;;;;2.77;2.10;;;22.80;65.70;;;;;;5058287;28;20170;-62
2022/06/07 09:06:29;;;;;;;2.80;1.90;;;22.80;63.90;;;;;;5064330;28;20236;-62
2022/06/07 09:08:58;;;;;;;4.73;2.10;;;22.80;65.90;;;;;;5063306;28;20186;-62
2022/06/07 09:14:21;;;;;;;3.20;2.47;;;22.90;68.80;;;;;;5055397;28;20244;-62
2022/06/07 09:16:47;;;;;;;2.20;2.00;;;22.90;68.30;;;;;;5062812;28;20182;-62
2022/06/07 09:19:19;;;;;;;3.30;2.23;;;22.90;70.40;;;;;;5054382;28;20198;-62
2022/06/07 09:21:46;;;;;;;2.33;2.13;;;22.90;67.50;;;;;;5071111;28;20181;-62
2022/06/07 09:24:20;;;;;;;2.60;2.00;;;22.90;67.10;;;;;;5055508;28;20228;-62
2022/06/07 09:26:46;;;;;;;2.10;2.00;;;23.00;68.90;;;;;;5053520;28;20197;-62
2022/06/07 09:29:12;;;;;;;2.77;2.20;;;23.00;65.70;;;;;;5061198;28;20267;-62
2022/06/07 09:31:41;;;;;;;2.27;1.93;;;23.00;65.50;;;;;;5058148;28;20190;-62
2022/06/07 09:34:14;;;;;;;2.83;1.70;;;23.10;62.50;;;;;;5063640;28;20244;-62
2022/06/07 09:36:43;;;;;;;3.90;2.53;;;23.10;67.00;;;;;;5080284;28;20193;-62
2022/06/07 09:39:24;;;;;;;2.53;2.30;;;23.10;65.50;;;;;;5055328;28;20205;-62
2022/06/07 09:41:59;;;;;;;3.50;2.37;;;23.20;65.50;;;;;;5071474;28;20186;-62
2022/06/07 09:44:38;;;;;;;2.40;2.20;;;23.20;60.90;;;;;;5067487;28;20185;-62
2022/06/07 09:47:19;;;;;;;2.53;2.33;;;23.30;64.00;;;;;;5063669;28;20179;-62
2022/06/07 09:49:48;;;;;;;3.27;2.67;;;23.30;60.20;;;;;;5062513;28;20233;-62
2022/06/07 09:52:20;;;;;;;3.87;2.60;;;23.50;61.00;;;;;;5062624;28;20200;-62
2022/06/07 09:54:49;;;;;;;3.90;2.47;;;23.60;62.80;;;;;;5068776;28;21188;-62
2022/06/07 09:57:26;;;;;;;3.37;2.80;;;23.70;62.60;;;;;;5066407;28;20182;-62
2022/06/07 10:00:19;;;;;;;2.57;2.37;;;23.70;63.00;;;;;;5064933;28;20198;-63
2022/06/07 10:03:36;;;;;;;3.77;2.57;;;23.70;64.80;;;;;;5066302;28;20190;-62
2022/06/07 10:06:17;;;;;;;2.47;2.27;;;23.80;64.30;;;;;;5030335;28;20190;-62
2022/06/07 10:09:01;;;;;;;3.10;2.10;;;23.90;61.20;;;;;;5063652;28;20178;-62
2022/06/07 10:11:46;;;;;;;3.63;2.17;;;24.00;61.70;;;;;;5066225;28;20182;-63
2022/06/07 10:14:27;;;;;;;2.10;2.00;;;24.10;62.50;;;;;;5064555;28;20174;-63
2022/06/07 10:17:01;;;;;;;2.47;2.17;;;24.10;61.20;;;;;;5059611;28;20179;-62
2022/06/07 10:19:48;;;;;;;2.00;1.90;;;24.20;60.50;;;;;;5068484;28;20198;-63
2022/06/07 10:22:26;;;;;;;2.73;2.10;;;24.30;60.80;;;;;;5066122;28;20178;-63
2022/06/07 10:25:00;;;;;;;2.50;2.30;;;24.30;61.80;;;;;;5071050;28;20246;-63
2022/06/07 10:27:39;;;;;;;3.77;2.23;;;24.30;58.00;;;;;;5061974;28;20209;-63
2022/06/07 10:30:40;;;;;;;3.03;2.10;;;24.40;60.00;;;;;;5069072;28;20269;-64
2022/06/07 10:33:46;;;;;;;2.90;2.60;;;24.60;62.60;;;;;;5061562;28;20197;-63
2022/06/07 10:36:47;;;;;;;3.80;2.13;;;24.70;64.20;;;;;;5028410;28;20221;-65
2022/06/07 10:39:38;;;;;;;2.30;2.10;;;24.60;61.90;;;;;;5063969;28;20197;-64
2022/06/07 10:42:23;;;;;;;4.70;2.33;;;24.50;63.90;;;;;;5066929;28;20179;-62
2022/06/07 10:45:14;;;;;;;3.63;2.53;;;24.40;62.00;;;;;;5061801;28;20242;-62
2022/06/07 10:47:47;;;;;;;3.27;2.20;;;24.40;64.00;;;;;;5058347;28;20183;-63
2022/06/07 10:50:21;;;;;;;3.93;2.80;;;24.30;63.20;;;;;;5068039;28;20189;-63
2022/06/07 10:52:57;;;;;;;4.97;3.23;;;24.30;65.00;;;;;;5056805;28;20206;-63
2022/06/07 10:55:30;;;;;;;5.30;3.17;;;24.20;64.70;;;;;;5069119;28;20189;-63
2022/06/07 10:58:33;;;;;;;3.90;2.30;;;24.20;59.90;;;;;;5063601;28;20189;-63
2022/06/07 11:01:16;;;;;;;3.00;2.80;;;24.20;61.90;;;;;;5066331;28;20219;-62
2022/06/07 11:10:15;;;;;;;2.97;2.30;;;24.30;61.30;;;;;;5068880;28;20232;-63
2022/06/07 11:13:08;;;;;;;2.83;2.63;;;24.50;60.20;;;;;;5071180;28;20181;-63
2022/06/07 11:15:55;;;;;;;3.30;2.37;;;24.60;63.80;;;;;;5059876;28;20178;-63
2022/06/07 11:18:24;;;;;;;2.57;2.37;;;24.70;58.80;;;;;;5057628;28;20213;-63
2022/06/07 11:21:12;;;;;;;3.17;2.70;;;24.90;57.10;;;;;;5069799;28;20251;-63
2022/06/07 11:23:47;;;;;;;2.50;2.30;;;25.10;59.70;;;;;;5059069;28;20193;-63
2022/06/07 11:26:18;;;;;;;2.53;2.33;;;25.20;55.50;;;;;;5057514;28;20231;-63
2022/06/07 11:28:49;;;;;;;4.40;2.40;;;25.30;55.00;;;;;;5061288;28;20186;-62
2022/06/07 11:31:26;;;;;;;2.50;2.23;;;25.40;53.70;;;;;;5063974;28;20241;-62
2022/06/07 11:33:51;;;;;;;3.10;2.33;;;25.40;56.10;;;;;;5060191;28;20193;-62
2022/06/07 11:36:20;;;;;;;5.27;2.33;;;25.40;55.80;;;;;;5063152;28;20179;-62
2022/06/07 11:41:39;;;;;;;3.20;2.90;;;25.70;54.00;;;;;;5074868;28;20211;-61
2022/06/07 11:44:07;;;;;;;2.70;2.50;;;25.80;57.50;;;;;;5054553;28;20179;-62
2022/06/07 11:46:33;;;;;;;3.00;2.50;;;26.00;58.30;;;;;;5056362;28;20189;-62
2022/06/07 11:49:24;;;;;;;3.10;2.30;;;26.10;56.70;;;;;;5070205;28;20229;-64
2022/06/07 11:52:31;;;;;;;2.33;2.03;;;26.20;57.10;;;;;;5057137;28;20233;-62
2022/06/07 11:54:59;;;;;;;2.00;1.90;;;26.40;55.60;;;;;;5065132;28;20187;-63
2022/06/07 11:57:40;;;;;;;2.37;1.90;;;26.70;54.80;;;;;;5056675;28;20190;-62
2022/06/07 12:00:18;;;;;;;2.70;1.90;;;27.00;53.40;;;;;;5066538;28;20202;-62
2022/06/07 12:02:56;;;;;;;1.80;1.70;;;27.20;51.60;;;;;;5069658;28;20327;-62
2022/06/07 12:05:57;;;;;;;3.17;1.90;;;27.50;55.70;;;;;;5059396;28;20186;-62
2022/06/07 12:08:28;;;;;;;1.87;1.63;;;28.10;50.60;;;;;;5017064;28;20186;-62
2022/06/07 12:11:05;;;;;;;1.90;1.80;;;28.20;45.60;;;;;;5061397;28;20193;-62
2022/06/07 12:13:54;;;;;;;2.20;1.80;;;28.00;45.50;;;;;;5066219;28;20236;-63
2022/06/07 12:16:51;;;;;;;3.17;1.93;;;27.60;49.00;;;;;;5078407;28;20225;-62
2022/06/07 12:19:21;;;;;;;1.87;1.63;;;27.40;50.80;;;;;;5062763;28;20201;-62
2022/06/07 12:21:53;;;;;;;3.10;1.80;;;27.10;51.00;;;;;;5069398;28;20178;-62
2022/06/07 12:24:19;;;;;;;1.50;1.40;;;26.90;52.60;;;;;;5070921;28;20185;-62
2022/06/07 12:26:47;;;;;;;1.97;1.77;;;26.80;52.90;;;;;;5052404;28;20190;-62
2022/06/07 12:29:28;;;;;;;1.80;1.70;;;26.60;48.60;;;;;;5069321;28;20268;-62
2022/06/07 12:32:00;;;;;;;2.27;1.83;;;26.40;48.60;;;;;;5057075;28;20189;-62
2022/06/07 12:34:35;;;;;;;4.70;1.77;;;26.50;51.90;;;;;;5071713;28;20276;-62
2022/06/07 12:37:19;;;;;;;3.90;1.90;;;26.70;53.80;;;;;;5071722;28;20193;-62
2022/06/07 12:39:57;;;;;;;2.60;1.90;;;26.60;51.60;;;;;;5065746;28;20255;-62
2022/06/07 12:42:24;;;;;;;2.20;1.70;;;26.50;53.80;;;;;;5051555;28;20194;-62
2022/06/07 12:45:13;;;;;;;2.30;1.80;;;26.20;52.80;;;;;;5060727;28;20183;-62
2022/06/07 12:47:39;;;;;;;2.70;1.60;;;26.10;54.30;;;;;;5060536;28;20186;-62
2022/06/07 12:50:27;;;;;;;2.77;2.10;;;25.90;54.20;;;;;;5050210;28;20260;-62
2022/06/07 12:52:55;;;;;;;2.70;1.87;;;25.80;56.40;;;;;;5057766;28;20207;-62
2022/06/07 12:55:29;;;;;;;5.60;2.03;;;25.70;57.90;;;;;;5049916;28;20190;-62
2022/06/07 12:58:01;;;;;;;4.40;2.27;;;25.60;56.50;;;;;;5054410;28;20178;-62
2022/06/07 13:00:39;;;;;;;3.73;1.90;;;25.40;56.90;;;;;;5052531;28;20210;-62
2022/06/07 13:03:28;;;;;;;2.83;1.80;;;25.20;54.60;;;;;;5054912;28;20181;-62
2022/06/07 13:06:06;;;;;;;4.93;2.20;;;25.20;56.00;;;;;;5059698;28;20285;-62
2022/06/07 13:08:39;;;;;;;3.33;1.83;;;25.00;57.60;;;;;;5068420;28;20190;-62
2022/06/07 13:11:15;;;;;;;7.97;2.50;;;24.90;57.00;;;;;;5057736;28;20203;-62
2022/06/07 13:13:45;;;;;;;7.37;2.27;;;24.80;57.60;;;;;;5070088;28;20272;-61
2022/06/07 13:16:15;;;;;;;2.17;1.80;;;24.80;58.90;;;;;;5069964;28;20181;-62
2022/06/07 13:18:54;;;;;;;4.77;1.70;;;24.80;57.60;;;;;;5049976;28;20193;-61
2022/06/07 13:21:25;;;;;;;6.40;2.00;;;24.80;59.20;;;;;;5049986;28;20209;-62
2022/06/07 13:23:53;;;;;;;3.97;2.30;;;24.80;58.60;;;;;;5055539;28;20192;-62
2022/06/07 13:26:22;;;;;;;3.03;2.33;;;24.80;60.00;;;;;;5060780;28;20182;-62
2022/06/07 13:29:08;;;;;;;5.20;2.13;;;24.90;58.60;;;;;;5069045;28;20248;-61